sensor_id;sensor_type;location;lat;lon;timestamp;temperature;humidity
32536;DHT22;18974;50.838;4.636;2024-02-26T00:01:01;7.70;99.90
32536;DHT22;18974;50.838;4.636;2024-02-26T00:03:27;7.70;99.90
32536;DHT22;18974;50.838;4.636;2024-02-26T00:05:53;7.60;99.90
32536;DHT22;18974;50.838;4.636;2024-02-26T00:08:19;7.60;99.90
32536;DHT22;18974;50.838;4.636;2024-02-26T00:10:44;7.60;99.90
32536;DHT22;18974;50.838;4.636;2024-02-26T00:13:10;7.60;99.90
32536;DHT22;18974;50.838;4.636;2024-02-26T00:15:35;7.60;99.90
32536;DHT22;18974;50.838;4.636;2024-02-26T00:18:01;7.60;99.90
32536;DHT22;18974;50.838;4.636;2024-02-26T00:20:27;7.60;99.90
32536;DHT22;18974;50.838;4.636;2024-02-26T00:22:53;7.70;99.90
32536;DHT22;18974;50.838;4.636;2024-02-26T00:25:18;7.70;99.90
32536;DHT22;18974;50.838;4.636;2024-02-26T00:27:44;7.70;99.90
32536;DHT22;18974;50.838;4.636;2024-02-26T00:30:10;7.70;99.90
32536;DHT22;18974;50.838;4.636;2024-02-26T00:32:36;7.50;99.90
32536;DHT22;18974;50.838;4.636;2024-02-26T00:35:01;7.50;99.90
32536;DHT22;18974;50.838;4.636;2024-02-26T00:37:27;7.40;99.90
32536;DHT22;18974;50.838;4.636;2024-02-26T00:39:53;7.40;99.90
32536;DHT22;18974;50.838;4.636;2024-02-26T00:42:19;7.40;99.90
32536;DHT22;18974;50.838;4.636;2024-02-26T00:44:45;7.50;99.90
32536;DHT22;18974;50.838;4.636;2024-02-26T00:47:10;7.50;99.90
32536;DHT22;18974;50.838;4.636;2024-02-26T00:49:37;7.40;99.90
32536;DHT22;18974;50.838;4.636;2024-02-26T00:52:03;7.40;99.90
32536;DHT22;18974;50.838;4.636;2024-02-26T00:54:28;7.40;99.90
32536;DHT22;18974;50.838;4.636;2024-02-26T00:56:54;7.40;99.90
32536;DHT22;18974;50.838;4.636;2024-02-26T00:59:20;7.40;99.90
32536;DHT22;18974;50.838;4.636;2024-02-26T01:01:45;7.40;99.90
32536;DHT22;18974;50.838;4.636;2024-02-26T01:04:11;7.50;99.90
32536;DHT22;18974;50.838;4.636;2024-02-26T01:06:37;7.50;99.90
32536;DHT22;18974;50.838;4.636;2024-02-26T01:09:03;7.50;99.90
32536;DHT22;18974;50.838;4.636;2024-02-26T01:11:29;7.40;99.90
32536;DHT22;18974;50.838;4.636;2024-02-26T01:13:55;7.40;99.90
32536;DHT22;18974;50.838;4.636;2024-02-26T01:16:23;7.40;99.90
32536;DHT22;18974;50.838;4.636;2024-02-26T01:18:49;7.40;99.90
32536;DHT22;18974;50.838;4.636;2024-02-26T01:21:14;7.40;99.90
32536;DHT22;18974;50.838;4.636;2024-02-26T01:23:40;7.40;99.90
32536;DHT22;18974;50.838;4.636;2024-02-26T01:26:06;7.40;99.90
32536;DHT22;18974;50.838;4.636;2024-02-26T01:28:31;7.30;99.90
32536;DHT22;18974;50.838;4.636;2024-02-26T01:30:57;7.30;99.90
32536;DHT22;18974;50.838;4.636;2024-02-26T01:33:25;7.30;99.90
32536;DHT22;18974;50.838;4.636;2024-02-26T01:35:50;7.30;99.90
32536;DHT22;18974;50.838;4.636;2024-02-26T01:38:16;7.30;99.90
32536;DHT22;18974;50.838;4.636;2024-02-26T01:40:42;7.20;99.90
32536;DHT22;18974;50.838;4.636;2024-02-26T01:43:07;7.10;99.90
32536;DHT22;18974;50.838;4.636;2024-02-26T01:45:33;7.20;99.90
32536;DHT22;18974;50.838;4.636;2024-02-26T01:47:59;7.20;99.90
32536;DHT22;18974;50.838;4.636;2024-02-26T01:50:24;7.20;99.90
32536;DHT22;18974;50.838;4.636;2024-02-26T01:52:51;7.20;99.90
32536;DHT22;18974;50.838;4.636;2024-02-26T01:55:20;7.30;99.90
32536;DHT22;18974;50.838;4.636;2024-02-26T01:57:49;7.30;99.90
32536;DHT22;18974;50.838;4.636;2024-02-26T02:00:18;7.20;99.90
32536;DHT22;18974;50.838;4.636;2024-02-26T02:02:44;7.20;99.90
32536;DHT22;18974;50.838;4.636;2024-02-26T02:05:12;7.20;99.90
32536;DHT22;18974;50.838;4.636;2024-02-26T02:07:40;7.20;99.90
32536;DHT22;18974;50.838;4.636;2024-02-26T02:10:06;7.20;99.90
32536;DHT22;18974;50.838;4.636;2024-02-26T02:12:33;7.10;99.90
32536;DHT22;18974;50.838;4.636;2024-02-26T02:15:00;7.20;99.90
32536;DHT22;18974;50.838;4.636;2024-02-26T02:17:26;7.20;99.90
32536;DHT22;18974;50.838;4.636;2024-02-26T02:19:52;7.30;99.90
32536;DHT22;18974;50.838;4.636;2024-02-26T02:22:18;7.40;99.90
32536;DHT22;18974;50.838;4.636;2024-02-26T02:24:45;7.40;99.90
32536;DHT22;18974;50.838;4.636;2024-02-26T02:27:10;7.30;99.90
32536;DHT22;18974;50.838;4.636;2024-02-26T02:29:36;7.30;99.90
32536;DHT22;18974;50.838;4.636;2024-02-26T02:32:03;7.30;99.90
32536;DHT22;18974;50.838;4.636;2024-02-26T02:34:31;7.20;99.90
32536;DHT22;18974;50.838;4.636;2024-02-26T02:36:57;7.30;99.90
32536;DHT22;18974;50.838;4.636;2024-02-26T02:39:22;7.20;99.90
32536;DHT22;18974;50.838;4.636;2024-02-26T02:41:48;7.20;99.90
32536;DHT22;18974;50.838;4.636;2024-02-26T02:44:14;7.20;99.90
32536;DHT22;18974;50.838;4.636;2024-02-26T02:46:40;7.20;99.90
32536;DHT22;18974;50.838;4.636;2024-02-26T02:49:11;7.10;99.90
32536;DHT22;18974;50.838;4.636;2024-02-26T02:51:37;7.10;99.90
32536;DHT22;18974;50.838;4.636;2024-02-26T02:54:03;7.10;99.90
32536;DHT22;18974;50.838;4.636;2024-02-26T02:56:29;7.20;99.90
32536;DHT22;18974;50.838;4.636;2024-02-26T02:58:55;7.20;99.90
32536;DHT22;18974;50.838;4.636;2024-02-26T03:01:20;7.00;99.90
32536;DHT22;18974;50.838;4.636;2024-02-26T03:03:46;7.00;99.90
32536;DHT22;18974;50.838;4.636;2024-02-26T03:06:11;7.00;99.90
32536;DHT22;18974;50.838;4.636;2024-02-26T03:08:37;7.00;99.90
32536;DHT22;18974;50.838;4.636;2024-02-26T03:11:05;7.00;99.90
32536;DHT22;18974;50.838;4.636;2024-02-26T03:13:31;7.10;99.90
32536;DHT22;18974;50.838;4.636;2024-02-26T03:15:56;7.00;99.90
32536;DHT22;18974;50.838;4.636;2024-02-26T03:18:22;7.10;99.90
32536;DHT22;18974;50.838;4.636;2024-02-26T03:20:49;7.10;99.90
32536;DHT22;18974;50.838;4.636;2024-02-26T03:23:14;7.20;99.90
32536;DHT22;18974;50.838;4.636;2024-02-26T03:25:44;7.10;99.90
32536;DHT22;18974;50.838;4.636;2024-02-26T03:28:11;7.10;99.90
32536;DHT22;18974;50.838;4.636;2024-02-26T03:30:38;7.10;99.90
32536;DHT22;18974;50.838;4.636;2024-02-26T03:33:03;7.20;99.90
32536;DHT22;18974;50.838;4.636;2024-02-26T03:35:29;7.20;99.90
32536;DHT22;18974;50.838;4.636;2024-02-26T03:37:55;7.20;99.90
32536;DHT22;18974;50.838;4.636;2024-02-26T03:40:20;7.20;99.90
32536;DHT22;18974;50.838;4.636;2024-02-26T03:42:46;7.30;99.90
32536;DHT22;18974;50.838;4.636;2024-02-26T03:45:12;7.20;99.90
32536;DHT22;18974;50.838;4.636;2024-02-26T03:47:38;7.20;99.90
32536;DHT22;18974;50.838;4.636;2024-02-26T03:50:07;7.10;99.90
32536;DHT22;18974;50.838;4.636;2024-02-26T03:52:33;7.10;99.90
32536;DHT22;18974;50.838;4.636;2024-02-26T03:54:59;7.20;99.90
32536;DHT22;18974;50.838;4.636;2024-02-26T03:57:25;7.10;99.90
32536;DHT22;18974;50.838;4.636;2024-02-26T03:59:50;7.00;99.90
32536;DHT22;18974;50.838;4.636;2024-02-26T04:02:16;7.10;99.90
32536;DHT22;18974;50.838;4.636;2024-02-26T04:04:42;7.10;99.90
32536;DHT22;18974;50.838;4.636;2024-02-26T04:07:07;7.20;99.90
32536;DHT22;18974;50.838;4.636;2024-02-26T04:09:33;7.10;99.90
32536;DHT22;18974;50.838;4.636;2024-02-26T04:11:59;7.10;99.90
32536;DHT22;18974;50.838;4.636;2024-02-26T04:14:25;7.00;99.90
32536;DHT22;18974;50.838;4.636;2024-02-26T04:16:51;7.10;99.90
32536;DHT22;18974;50.838;4.636;2024-02-26T04:19:19;7.10;99.90
32536;DHT22;18974;50.838;4.636;2024-02-26T04:21:45;7.10;99.90
32536;DHT22;18974;50.838;4.636;2024-02-26T04:24:11;7.10;99.90
32536;DHT22;18974;50.838;4.636;2024-02-26T04:26:37;7.10;99.90
32536;DHT22;18974;50.838;4.636;2024-02-26T04:29:03;7.00;99.90
32536;DHT22;18974;50.838;4.636;2024-02-26T04:31:28;7.10;99.90
32536;DHT22;18974;50.838;4.636;2024-02-26T04:33:54;7.10;99.90
32536;DHT22;18974;50.838;4.636;2024-02-26T04:36:20;7.20;99.90
32536;DHT22;18974;50.838;4.636;2024-02-26T04:38:46;7.00;99.90
32536;DHT22;18974;50.838;4.636;2024-02-26T04:41:11;7.00;99.90
32536;DHT22;18974;50.838;4.636;2024-02-26T04:43:38;7.10;99.90
32536;DHT22;18974;50.838;4.636;2024-02-26T04:46:12;7.10;99.90
32536;DHT22;18974;50.838;4.636;2024-02-26T04:48:38;7.10;99.90
32536;DHT22;18974;50.838;4.636;2024-02-26T04:51:04;7.10;99.90
32536;DHT22;18974;50.838;4.636;2024-02-26T04:53:30;7.10;99.90
32536;DHT22;18974;50.838;4.636;2024-02-26T04:55:55;7.10;99.90
32536;DHT22;18974;50.838;4.636;2024-02-26T04:58:21;7.10;99.90
32536;DHT22;18974;50.838;4.636;2024-02-26T05:00:47;7.20;99.90
32536;DHT22;18974;50.838;4.636;2024-02-26T05:03:12;7.20;99.90
32536;DHT22;18974;50.838;4.636;2024-02-26T05:05:44;7.10;99.90
32536;DHT22;18974;50.838;4.636;2024-02-26T05:08:10;7.10;99.90
32536;DHT22;18974;50.838;4.636;2024-02-26T05:10:36;7.10;99.90
32536;DHT22;18974;50.838;4.636;2024-02-26T05:13:05;7.00;99.90
32536;DHT22;18974;50.838;4.636;2024-02-26T05:15:31;6.90;99.90
32536;DHT22;18974;50.838;4.636;2024-02-26T05:17:56;7.00;99.90
32536;DHT22;18974;50.838;4.636;2024-02-26T05:20:22;7.00;99.90
32536;DHT22;18974;50.838;4.636;2024-02-26T05:22:47;7.00;99.90
32536;DHT22;18974;50.838;4.636;2024-02-26T05:25:17;7.00;99.90
32536;DHT22;18974;50.838;4.636;2024-02-26T05:27:43;7.00;99.90
32536;DHT22;18974;50.838;4.636;2024-02-26T05:30:10;7.00;99.90
32536;DHT22;18974;50.838;4.636;2024-02-26T05:32:36;7.00;99.90
32536;DHT22;18974;50.838;4.636;2024-02-26T05:35:02;7.00;99.90
32536;DHT22;18974;50.838;4.636;2024-02-26T05:37:29;7.00;99.90
32536;DHT22;18974;50.838;4.636;2024-02-26T05:39:55;7.00;99.90
32536;DHT22;18974;50.838;4.636;2024-02-26T05:42:20;7.00;99.90
32536;DHT22;18974;50.838;4.636;2024-02-26T05:44:46;7.00;99.90
32536;DHT22;18974;50.838;4.636;2024-02-26T05:47:12;7.00;99.90
32536;DHT22;18974;50.838;4.636;2024-02-26T05:49:39;7.10;99.90
32536;DHT22;18974;50.838;4.636;2024-02-26T05:52:05;7.10;99.90
32536;DHT22;18974;50.838;4.636;2024-02-26T05:54:31;7.00;99.90
32536;DHT22;18974;50.838;4.636;2024-02-26T05:56:57;7.00;99.90
32536;DHT22;18974;50.838;4.636;2024-02-26T05:59:23;7.00;99.90
32536;DHT22;18974;50.838;4.636;2024-02-26T06:01:49;7.00;99.90
32536;DHT22;18974;50.838;4.636;2024-02-26T06:04:15;7.00;99.90
32536;DHT22;18974;50.838;4.636;2024-02-26T06:06:42;6.90;99.90
32536;DHT22;18974;50.838;4.636;2024-02-26T06:09:08;6.90;99.90
32536;DHT22;18974;50.838;4.636;2024-02-26T06:11:33;7.00;99.90
32536;DHT22;18974;50.838;4.636;2024-02-26T06:13:59;7.00;99.90
32536;DHT22;18974;50.838;4.636;2024-02-26T06:16:25;7.10;99.90
32536;DHT22;18974;50.838;4.636;2024-02-26T06:18:50;7.00;99.90
32536;DHT22;18974;50.838;4.636;2024-02-26T06:21:16;7.00;99.90
32536;DHT22;18974;50.838;4.636;2024-02-26T06:23:41;7.10;99.90
32536;DHT22;18974;50.838;4.636;2024-02-26T06:26:07;7.10;99.90
32536;DHT22;18974;50.838;4.636;2024-02-26T06:28:33;7.10;99.90
32536;DHT22;18974;50.838;4.636;2024-02-26T06:31:01;7.00;99.90
32536;DHT22;18974;50.838;4.636;2024-02-26T06:33:27;6.90;99.90
32536;DHT22;18974;50.838;4.636;2024-02-26T06:35:52;7.00;99.90
32536;DHT22;18974;50.838;4.636;2024-02-26T06:38:18;6.90;99.90
32536;DHT22;18974;50.838;4.636;2024-02-26T06:40:44;7.00;99.90
32536;DHT22;18974;50.838;4.636;2024-02-26T06:43:10;7.00;99.90
32536;DHT22;18974;50.838;4.636;2024-02-26T06:45:35;7.00;99.90
32536;DHT22;18974;50.838;4.636;2024-02-26T06:48:01;7.00;99.90
32536;DHT22;18974;50.838;4.636;2024-02-26T06:50:28;7.00;99.90
32536;DHT22;18974;50.838;4.636;2024-02-26T06:52:53;6.90;99.90
32536;DHT22;18974;50.838;4.636;2024-02-26T06:55:19;6.90;99.90
32536;DHT22;18974;50.838;4.636;2024-02-26T06:57:45;6.90;99.90
32536;DHT22;18974;50.838;4.636;2024-02-26T07:00:11;6.90;99.90
32536;DHT22;18974;50.838;4.636;2024-02-26T07:02:41;6.90;99.90
32536;DHT22;18974;50.838;4.636;2024-02-26T07:05:07;6.90;99.90
32536;DHT22;18974;50.838;4.636;2024-02-26T07:07:33;6.80;99.90
32536;DHT22;18974;50.838;4.636;2024-02-26T07:09:58;6.80;99.90
32536;DHT22;18974;50.838;4.636;2024-02-26T07:12:24;6.90;99.90
32536;DHT22;18974;50.838;4.636;2024-02-26T07:14:50;6.90;99.90
32536;DHT22;18974;50.838;4.636;2024-02-26T07:17:17;6.90;99.90
32536;DHT22;18974;50.838;4.636;2024-02-26T07:19:43;6.80;99.90
32536;DHT22;18974;50.838;4.636;2024-02-26T07:22:08;6.80;99.90
32536;DHT22;18974;50.838;4.636;2024-02-26T07:24:34;6.70;99.90
32536;DHT22;18974;50.838;4.636;2024-02-26T07:27:00;6.80;99.90
32536;DHT22;18974;50.838;4.636;2024-02-26T07:29:25;6.70;99.90
32536;DHT22;18974;50.838;4.636;2024-02-26T07:31:51;6.70;99.90
32536;DHT22;18974;50.838;4.636;2024-02-26T07:34:17;6.70;99.90
32536;DHT22;18974;50.838;4.636;2024-02-26T07:36:42;6.70;99.90
32536;DHT22;18974;50.838;4.636;2024-02-26T07:39:08;6.80;99.90
32536;DHT22;18974;50.838;4.636;2024-02-26T07:41:34;6.70;99.90
32536;DHT22;18974;50.838;4.636;2024-02-26T07:43:59;6.80;99.90
32536;DHT22;18974;50.838;4.636;2024-02-26T07:46:25;6.80;99.90
32536;DHT22;18974;50.838;4.636;2024-02-26T07:48:51;6.80;99.90
32536;DHT22;18974;50.838;4.636;2024-02-26T07:51:16;6.80;99.90
32536;DHT22;18974;50.838;4.636;2024-02-26T07:53:45;6.70;99.90
32536;DHT22;18974;50.838;4.636;2024-02-26T07:56:10;6.70;99.90
32536;DHT22;18974;50.838;4.636;2024-02-26T07:58:36;6.70;99.90
32536;DHT22;18974;50.838;4.636;2024-02-26T08:01:02;6.70;99.90
32536;DHT22;18974;50.838;4.636;2024-02-26T08:03:27;6.80;99.90
32536;DHT22;18974;50.838;4.636;2024-02-26T08:05:53;6.80;99.90
32536;DHT22;18974;50.838;4.636;2024-02-26T08:08:19;6.70;99.90
32536;DHT22;18974;50.838;4.636;2024-02-26T08:10:44;6.80;99.90
32536;DHT22;18974;50.838;4.636;2024-02-26T08:13:10;6.80;99.90
32536;DHT22;18974;50.838;4.636;2024-02-26T08:15:36;6.80;99.90
32536;DHT22;18974;50.838;4.636;2024-02-26T08:18:04;6.90;99.90
32536;DHT22;18974;50.838;4.636;2024-02-26T08:20:30;6.90;99.90
32536;DHT22;18974;50.838;4.636;2024-02-26T08:22:57;7.00;99.90
32536;DHT22;18974;50.838;4.636;2024-02-26T08:25:23;6.90;99.90
32536;DHT22;18974;50.838;4.636;2024-02-26T08:27:49;6.90;99.90
32536;DHT22;18974;50.838;4.636;2024-02-26T08:30:16;6.90;99.90
32536;DHT22;18974;50.838;4.636;2024-02-26T08:32:43;6.90;99.90
32536;DHT22;18974;50.838;4.636;2024-02-26T08:35:09;6.80;99.90
32536;DHT22;18974;50.838;4.636;2024-02-26T08:37:35;6.80;99.90
32536;DHT22;18974;50.838;4.636;2024-02-26T08:40:01;6.90;99.90
32536;DHT22;18974;50.838;4.636;2024-02-26T08:42:26;6.80;99.90
32536;DHT22;18974;50.838;4.636;2024-02-26T08:44:52;6.80;99.90
32536;DHT22;18974;50.838;4.636;2024-02-26T08:47:20;6.80;99.90
32536;DHT22;18974;50.838;4.636;2024-02-26T08:49:45;6.90;99.90
32536;DHT22;18974;50.838;4.636;2024-02-26T08:52:11;7.00;99.90
32536;DHT22;18974;50.838;4.636;2024-02-26T08:54:37;7.00;99.90
32536;DHT22;18974;50.838;4.636;2024-02-26T08:57:03;7.00;99.90
32536;DHT22;18974;50.838;4.636;2024-02-26T08:59:29;7.00;99.90
32536;DHT22;18974;50.838;4.636;2024-02-26T09:01:55;7.00;99.90
32536;DHT22;18974;50.838;4.636;2024-02-26T09:04:20;7.00;99.90
32536;DHT22;18974;50.838;4.636;2024-02-26T09:06:47;7.00;99.90
32536;DHT22;18974;50.838;4.636;2024-02-26T09:09:12;7.00;99.90
32536;DHT22;18974;50.838;4.636;2024-02-26T09:11:38;7.00;99.90
32536;DHT22;18974;50.838;4.636;2024-02-26T09:14:04;7.00;99.90
32536;DHT22;18974;50.838;4.636;2024-02-26T09:16:30;7.00;99.90
32536;DHT22;18974;50.838;4.636;2024-02-26T09:18:56;7.00;99.90
32536;DHT22;18974;50.838;4.636;2024-02-26T09:21:22;7.00;99.90
32536;DHT22;18974;50.838;4.636;2024-02-26T09:23:52;7.10;99.90
32536;DHT22;18974;50.838;4.636;2024-02-26T09:26:18;7.10;99.90
32536;DHT22;18974;50.838;4.636;2024-02-26T09:28:44;7.10;99.90
32536;DHT22;18974;50.838;4.636;2024-02-26T09:31:10;7.10;99.90
32536;DHT22;18974;50.838;4.636;2024-02-26T09:33:35;7.10;99.90
32536;DHT22;18974;50.838;4.636;2024-02-26T09:36:02;7.00;99.90
32536;DHT22;18974;50.838;4.636;2024-02-26T09:38:28;7.10;99.90
32536;DHT22;18974;50.838;4.636;2024-02-26T09:40:58;7.00;99.90
32536;DHT22;18974;50.838;4.636;2024-02-26T09:43:26;7.00;99.90
32536;DHT22;18974;50.838;4.636;2024-02-26T09:45:56;7.00;99.90
32536;DHT22;18974;50.838;4.636;2024-02-26T09:48:22;7.10;99.90
32536;DHT22;18974;50.838;4.636;2024-02-26T09:50:49;7.10;99.90
32536;DHT22;18974;50.838;4.636;2024-02-26T09:53:15;7.10;99.90
32536;DHT22;18974;50.838;4.636;2024-02-26T09:55:42;7.10;99.90
32536;DHT22;18974;50.838;4.636;2024-02-26T09:58:08;7.00;99.90
32536;DHT22;18974;50.838;4.636;2024-02-26T10:00:37;7.10;99.90
32536;DHT22;18974;50.838;4.636;2024-02-26T10:03:05;7.00;99.90
32536;DHT22;18974;50.838;4.636;2024-02-26T10:05:35;6.90;99.90
32536;DHT22;18974;50.838;4.636;2024-02-26T10:08:04;6.90;99.90
32536;DHT22;18974;50.838;4.636;2024-02-26T10:10:30;7.00;99.90
32536;DHT22;18974;50.838;4.636;2024-02-26T10:12:59;7.10;99.90
32536;DHT22;18974;50.838;4.636;2024-02-26T10:15:25;7.10;99.90
32536;DHT22;18974;50.838;4.636;2024-02-26T10:17:51;7.10;99.90
32536;DHT22;18974;50.838;4.636;2024-02-26T10:20:17;7.10;99.90
32536;DHT22;18974;50.838;4.636;2024-02-26T10:22:46;7.10;99.90
32536;DHT22;18974;50.838;4.636;2024-02-26T10:25:12;7.20;99.90
32536;DHT22;18974;50.838;4.636;2024-02-26T10:27:40;7.10;99.90
32536;DHT22;18974;50.838;4.636;2024-02-26T10:30:18;7.10;99.90
32536;DHT22;18974;50.838;4.636;2024-02-26T10:32:45;7.10;99.90
32536;DHT22;18974;50.838;4.636;2024-02-26T10:35:12;7.10;99.90
32536;DHT22;18974;50.838;4.636;2024-02-26T10:37:40;7.00;99.90
32536;DHT22;18974;50.838;4.636;2024-02-26T10:40:06;7.10;99.90
32536;DHT22;18974;50.838;4.636;2024-02-26T10:42:35;7.10;99.90
32536;DHT22;18974;50.838;4.636;2024-02-26T10:45:00;7.00;99.90
32536;DHT22;18974;50.838;4.636;2024-02-26T10:47:29;7.00;99.90
32536;DHT22;18974;50.838;4.636;2024-02-26T10:49:56;7.00;99.90
32536;DHT22;18974;50.838;4.636;2024-02-26T10:52:23;7.00;99.90
32536;DHT22;18974;50.838;4.636;2024-02-26T10:54:54;7.00;99.90
32536;DHT22;18974;50.838;4.636;2024-02-26T10:57:21;7.00;99.90
32536;DHT22;18974;50.838;4.636;2024-02-26T10:59:48;7.10;99.90
32536;DHT22;18974;50.838;4.636;2024-02-26T11:02:14;7.00;99.90
32536;DHT22;18974;50.838;4.636;2024-02-26T11:04:41;7.00;99.90
32536;DHT22;18974;50.838;4.636;2024-02-26T11:07:09;7.00;99.90
32536;DHT22;18974;50.838;4.636;2024-02-26T11:09:35;6.90;99.90
32536;DHT22;18974;50.838;4.636;2024-02-26T11:12:08;6.80;99.90
32536;DHT22;18974;50.838;4.636;2024-02-26T11:14:39;6.90;99.90
32536;DHT22;18974;50.838;4.636;2024-02-26T11:17:07;6.90;99.90
32536;DHT22;18974;50.838;4.636;2024-02-26T11:19:35;6.90;99.90
32536;DHT22;18974;50.838;4.636;2024-02-26T11:22:01;7.00;99.90
32536;DHT22;18974;50.838;4.636;2024-02-26T11:24:27;6.80;99.90
32536;DHT22;18974;50.838;4.636;2024-02-26T11:26:56;6.90;99.90
32536;DHT22;18974;50.838;4.636;2024-02-26T11:29:29;6.80;99.90
32536;DHT22;18974;50.838;4.636;2024-02-26T11:31:59;6.90;99.90
32536;DHT22;18974;50.838;4.636;2024-02-26T11:34:26;6.90;99.90
32536;DHT22;18974;50.838;4.636;2024-02-26T11:36:52;6.80;99.90
32536;DHT22;18974;50.838;4.636;2024-02-26T11:39:18;6.90;99.90
32536;DHT22;18974;50.838;4.636;2024-02-26T11:41:44;6.90;99.90
32536;DHT22;18974;50.838;4.636;2024-02-26T11:44:09;6.80;99.90
32536;DHT22;18974;50.838;4.636;2024-02-26T11:46:42;6.70;99.90
32536;DHT22;18974;50.838;4.636;2024-02-26T11:51:56;6.60;99.90
32536;DHT22;18974;50.838;4.636;2024-02-26T11:54:52;6.60;99.90
32536;DHT22;18974;50.838;4.636;2024-02-26T11:57:28;6.60;99.90
32536;DHT22;18974;50.838;4.636;2024-02-26T11:59:55;6.60;99.90
32536;DHT22;18974;50.838;4.636;2024-02-26T12:02:47;6.70;99.90
32536;DHT22;18974;50.838;4.636;2024-02-26T12:05:14;6.60;99.90
32536;DHT22;18974;50.838;4.636;2024-02-26T12:07:48;6.60;99.90
32536;DHT22;18974;50.838;4.636;2024-02-26T12:10:37;6.60;99.90
32536;DHT22;18974;50.838;4.636;2024-02-26T12:13:16;6.60;99.90
32536;DHT22;18974;50.838;4.636;2024-02-26T12:15:58;6.70;99.90
32536;DHT22;18974;50.838;4.636;2024-02-26T12:18:24;6.70;99.90
32536;DHT22;18974;50.838;4.636;2024-02-26T12:21:00;6.70;99.90
32536;DHT22;18974;50.838;4.636;2024-02-26T12:23:26;6.80;99.90
32536;DHT22;18974;50.838;4.636;2024-02-26T12:25:52;6.80;99.90
32536;DHT22;18974;50.838;4.636;2024-02-26T12:28:18;6.80;99.90
32536;DHT22;18974;50.838;4.636;2024-02-26T12:30:44;6.80;99.90
32536;DHT22;18974;50.838;4.636;2024-02-26T12:33:09;6.80;99.90
32536;DHT22;18974;50.838;4.636;2024-02-26T12:35:35;6.80;99.90
32536;DHT22;18974;50.838;4.636;2024-02-26T12:38:02;6.70;99.90
32536;DHT22;18974;50.838;4.636;2024-02-26T12:40:29;6.70;99.90
32536;DHT22;18974;50.838;4.636;2024-02-26T12:42:55;6.80;99.90
32536;DHT22;18974;50.838;4.636;2024-02-26T12:45:21;6.70;99.90
32536;DHT22;18974;50.838;4.636;2024-02-26T12:47:47;6.90;99.90
32536;DHT22;18974;50.838;4.636;2024-02-26T12:50:15;6.80;99.90
32536;DHT22;18974;50.838;4.636;2024-02-26T12:52:45;6.70;99.90
32536;DHT22;18974;50.838;4.636;2024-02-26T12:55:15;6.80;99.90
32536;DHT22;18974;50.838;4.636;2024-02-26T12:57:42;6.70;99.90
32536;DHT22;18974;50.838;4.636;2024-02-26T13:00:15;6.70;99.90
32536;DHT22;18974;50.838;4.636;2024-02-26T13:02:41;6.60;99.90
32536;DHT22;18974;50.838;4.636;2024-02-26T13:05:12;6.60;99.90
32536;DHT22;18974;50.838;4.636;2024-02-26T13:07:42;6.60;99.90
32536;DHT22;18974;50.838;4.636;2024-02-26T13:10:09;6.70;99.90
32536;DHT22;18974;50.838;4.636;2024-02-26T13:12:41;6.80;99.90
32536;DHT22;18974;50.838;4.636;2024-02-26T13:15:07;6.70;99.90
32536;DHT22;18974;50.838;4.636;2024-02-26T13:17:33;6.70;99.90
32536;DHT22;18974;50.838;4.636;2024-02-26T13:19:59;6.70;99.90
32536;DHT22;18974;50.838;4.636;2024-02-26T13:22:25;6.60;99.90
32536;DHT22;18974;50.838;4.636;2024-02-26T13:24:58;6.70;99.90
32536;DHT22;18974;50.838;4.636;2024-02-26T13:27:24;6.70;99.90
32536;DHT22;18974;50.838;4.636;2024-02-26T13:32:32;6.80;99.90
32536;DHT22;18974;50.838;4.636;2024-02-26T13:35:08;6.70;99.90
32536;DHT22;18974;50.838;4.636;2024-02-26T13:37:35;6.70;99.90
32536;DHT22;18974;50.838;4.636;2024-02-26T13:40:07;6.70;99.90
32536;DHT22;18974;50.838;4.636;2024-02-26T13:42:34;6.70;99.90
32536;DHT22;18974;50.838;4.636;2024-02-26T13:45:00;6.70;99.90
32536;DHT22;18974;50.838;4.636;2024-02-26T13:47:25;6.70;99.90
32536;DHT22;18974;50.838;4.636;2024-02-26T13:49:51;6.70;99.90
32536;DHT22;18974;50.838;4.636;2024-02-26T13:52:17;6.70;99.90
32536;DHT22;18974;50.838;4.636;2024-02-26T13:54:43;6.70;99.90
32536;DHT22;18974;50.838;4.636;2024-02-26T13:57:09;6.80;99.90
32536;DHT22;18974;50.838;4.636;2024-02-26T13:59:34;6.90;99.90
32536;DHT22;18974;50.838;4.636;2024-02-26T14:02:00;6.90;99.90
32536;DHT22;18974;50.838;4.636;2024-02-26T14:04:26;6.80;99.90
32536;DHT22;18974;50.838;4.636;2024-02-26T14:06:51;6.90;99.90
32536;DHT22;18974;50.838;4.636;2024-02-26T14:09:17;6.90;99.90
32536;DHT22;18974;50.838;4.636;2024-02-26T14:11:47;6.90;99.90
32536;DHT22;18974;50.838;4.636;2024-02-26T14:14:13;7.00;99.90
32536;DHT22;18974;50.838;4.636;2024-02-26T14:16:39;7.00;99.90
32536;DHT22;18974;50.838;4.636;2024-02-26T14:19:04;6.90;99.90
32536;DHT22;18974;50.838;4.636;2024-02-26T14:21:30;7.00;99.90
32536;DHT22;18974;50.838;4.636;2024-02-26T14:23:56;7.00;99.90
32536;DHT22;18974;50.838;4.636;2024-02-26T14:26:25;7.00;99.90
32536;DHT22;18974;50.838;4.636;2024-02-26T14:28:50;6.90;99.90
32536;DHT22;18974;50.838;4.636;2024-02-26T14:31:19;6.90;99.90
32536;DHT22;18974;50.838;4.636;2024-02-26T14:33:45;6.90;99.90
32536;DHT22;18974;50.838;4.636;2024-02-26T14:36:11;6.90;99.90
32536;DHT22;18974;50.838;4.636;2024-02-26T14:38:37;6.80;99.90
32536;DHT22;18974;50.838;4.636;2024-02-26T14:41:04;6.80;99.90
32536;DHT22;18974;50.838;4.636;2024-02-26T14:43:30;6.80;99.90
32536;DHT22;18974;50.838;4.636;2024-02-26T14:45:57;6.80;99.90
32536;DHT22;18974;50.838;4.636;2024-02-26T14:48:22;6.70;99.90
32536;DHT22;18974;50.838;4.636;2024-02-26T14:50:49;6.80;99.90
32536;DHT22;18974;50.838;4.636;2024-02-26T14:53:17;6.70;99.90
32536;DHT22;18974;50.838;4.636;2024-02-26T14:55:42;6.80;99.90
32536;DHT22;18974;50.838;4.636;2024-02-26T14:58:08;6.80;99.90
32536;DHT22;18974;50.838;4.636;2024-02-26T15:00:38;6.80;99.90
32536;DHT22;18974;50.838;4.636;2024-02-26T15:03:04;6.90;99.90
32536;DHT22;18974;50.838;4.636;2024-02-26T15:05:30;6.80;99.90
32536;DHT22;18974;50.838;4.636;2024-02-26T15:07:55;6.90;99.90
32536;DHT22;18974;50.838;4.636;2024-02-26T15:10:21;6.80;99.90
32536;DHT22;18974;50.838;4.636;2024-02-26T15:12:46;6.80;99.90
32536;DHT22;18974;50.838;4.636;2024-02-26T15:15:13;6.90;99.90
32536;DHT22;18974;50.838;4.636;2024-02-26T15:17:38;6.80;99.90
32536;DHT22;18974;50.838;4.636;2024-02-26T15:20:05;6.80;99.90
32536;DHT22;18974;50.838;4.636;2024-02-26T15:22:33;6.90;99.90
32536;DHT22;18974;50.838;4.636;2024-02-26T15:24:59;6.90;99.90
32536;DHT22;18974;50.838;4.636;2024-02-26T15:27:24;6.90;99.90
32536;DHT22;18974;50.838;4.636;2024-02-26T15:29:50;6.90;99.90
32536;DHT22;18974;50.838;4.636;2024-02-26T15:32:23;6.90;99.90
32536;DHT22;18974;50.838;4.636;2024-02-26T15:34:50;6.90;99.90
32536;DHT22;18974;50.838;4.636;2024-02-26T15:37:16;6.90;99.90
32536;DHT22;18974;50.838;4.636;2024-02-26T15:39:41;7.00;99.90
32536;DHT22;18974;50.838;4.636;2024-02-26T15:42:07;6.90;99.90
32536;DHT22;18974;50.838;4.636;2024-02-26T15:44:33;6.90;99.90
32536;DHT22;18974;50.838;4.636;2024-02-26T15:46:58;6.90;99.90